logo
Rechercher aéroport 
image banner adimage banner adimage banner ad
image banner ad

SCIT - Ivan Martinez

Situé à Isla Tierra De Fuego, Chile

ICAO - SCIT, IATA -

Données fournies par Airmate  

Information générale

Coordonnées: S52°58'6" W70°0'60"
Élévation : 144 feet MSL.
Variation magnétique : 12° East
Voir autres Aéroports à Magallanes

Données opérationnelles

Special qualification required
Heure actuelle UTC:
Heure actuelle locale:
Météo à : SCFM - Capitan Fuentes Martinez ( 38 km )
TAF: TAF SCFM 011619Z 0118/0206 28015KT 9999 SCT036 TN00/0206Z TX09/0118Z TEMPO 0118/0120 7000 -SHRA SCT008 BKN020
Voir NOTAMs / SUP AIP / TFR affectant cet aéroport [VIEW]
Fréquences de communication: [VIEW]

Pistes:

Identifiant RWYQFULongueur (ft)Largeur (ft)SurfaceLDA (ft)
0896°201260DIRT
26276°201260DIRT

Coordonnées de l'aéroport

Adresse: Isla Tierra De Fuego Chile

Vue satellite de SCIT